sensor_id;sensor_type;location;lat;lon;timestamp;P1;durP1;ratioP1;P2;durP2;ratioP2
22429;SDS011;11382;48.086;11.632;2023-11-21T00:01:54;5.63;;;1.60;;
22429;SDS011;11382;48.086;11.632;2023-11-21T00:04:23;9.48;;;1.98;;
22429;SDS011;11382;48.086;11.632;2023-11-21T00:06:51;4.72;;;1.45;;
22429;SDS011;11382;48.086;11.632;2023-11-21T00:09:19;10.23;;;1.83;;
22429;SDS011;11382;48.086;11.632;2023-11-21T00:11:47;6.22;;;1.48;;
22429;SDS011;11382;48.086;11.632;2023-11-21T00:14:15;4.70;;;1.23;;
22429;SDS011;11382;48.086;11.632;2023-11-21T00:16:45;4.20;;;1.20;;
22429;SDS011;11382;48.086;11.632;2023-11-21T00:19:13;4.35;;;1.33;;
22429;SDS011;11382;48.086;11.632;2023-11-21T00:21:42;3.80;;;1.75;;
22429;SDS011;11382;48.086;11.632;2023-11-21T00:24:11;8.32;;;1.83;;
22429;SDS011;11382;48.086;11.632;2023-11-21T00:26:40;3.05;;;1.10;;
22429;SDS011;11382;48.086;11.632;2023-11-21T00:29:09;5.60;;;1.52;;
22429;SDS011;11382;48.086;11.632;2023-11-21T00:31:37;5.55;;;1.80;;
22429;SDS011;11382;48.086;11.632;2023-11-21T00:34:06;3.75;;;1.15;;
22429;SDS011;11382;48.086;11.632;2023-11-21T00:36:34;4.63;;;1.40;;
22429;SDS011;11382;48.086;11.632;2023-11-21T00:39:03;5.10;;;1.52;;
22429;SDS011;11382;48.086;11.632;2023-11-21T00:41:32;3.63;;;1.25;;
22429;SDS011;11382;48.086;11.632;2023-11-21T00:44:00;5.22;;;1.20;;
22429;SDS011;11382;48.086;11.632;2023-11-21T00:46:28;7.93;;;1.60;;
22429;SDS011;11382;48.086;11.632;2023-11-21T00:48:56;6.43;;;1.30;;
22429;SDS011;11382;48.086;11.632;2023-11-21T00:51:26;2.75;;;1.33;;
22429;SDS011;11382;48.086;11.632;2023-11-21T00:53:54;6.25;;;1.20;;
22429;SDS011;11382;48.086;11.632;2023-11-21T00:56:22;5.20;;;1.20;;
22429;SDS011;11382;48.086;11.632;2023-11-21T00:58:50;5.18;;;1.27;;
22429;SDS011;11382;48.086;11.632;2023-11-21T01:01:19;3.45;;;1.15;;
22429;SDS011;11382;48.086;11.632;2023-11-21T01:03:48;6.50;;;1.60;;
22429;SDS011;11382;48.086;11.632;2023-11-21T01:06:18;6.57;;;1.20;;
22429;SDS011;11382;48.086;11.632;2023-11-21T01:08:48;3.55;;;1.17;;
22429;SDS011;11382;48.086;11.632;2023-11-21T01:11:16;5.32;;;1.40;;
22429;SDS011;11382;48.086;11.632;2023-11-21T01:13:44;5.88;;;1.67;;
22429;SDS011;11382;48.086;11.632;2023-11-21T01:16:12;4.05;;;1.40;;
22429;SDS011;11382;48.086;11.632;2023-11-21T01:18:40;3.83;;;1.10;;
22429;SDS011;11382;48.086;11.632;2023-11-21T01:21:08;7.22;;;1.40;;
22429;SDS011;11382;48.086;11.632;2023-11-21T01:23:36;4.55;;;1.40;;
22429;SDS011;11382;48.086;11.632;2023-11-21T01:26:06;4.88;;;1.30;;
22429;SDS011;11382;48.086;11.632;2023-11-21T01:28:36;4.18;;;1.10;;
22429;SDS011;11382;48.086;11.632;2023-11-21T01:31:04;3.53;;;1.10;;
22429;SDS011;11382;48.086;11.632;2023-11-21T01:33:33;6.00;;;1.55;;
22429;SDS011;11382;48.086;11.632;2023-11-21T01:36:01;5.45;;;1.67;;
22429;SDS011;11382;48.086;11.632;2023-11-21T01:38:29;6.50;;;1.60;;
22429;SDS011;11382;48.086;11.632;2023-11-21T01:40:59;7.00;;;1.58;;
22429;SDS011;11382;48.086;11.632;2023-11-21T01:43:29;4.03;;;1.27;;
22429;SDS011;11382;48.086;11.632;2023-11-21T01:45:58;4.85;;;1.20;;
22429;SDS011;11382;48.086;11.632;2023-11-21T01:48:27;2.08;;;0.90;;
22429;SDS011;11382;48.086;11.632;2023-11-21T01:50:55;7.63;;;1.73;;
22429;SDS011;11382;48.086;11.632;2023-11-21T01:53:24;5.20;;;1.17;;
22429;SDS011;11382;48.086;11.632;2023-11-21T01:55:53;4.18;;;1.63;;
22429;SDS011;11382;48.086;11.632;2023-11-21T01:58:25;5.95;;;1.20;;
22429;SDS011;11382;48.086;11.632;2023-11-21T02:00:54;5.88;;;1.65;;
22429;SDS011;11382;48.086;11.632;2023-11-21T02:03:22;6.75;;;1.45;;
22429;SDS011;11382;48.086;11.632;2023-11-21T02:05:50;3.15;;;1.30;;
22429;SDS011;11382;48.086;11.632;2023-11-21T02:08:19;7.45;;;1.50;;
22429;SDS011;11382;48.086;11.632;2023-11-21T02:10:47;3.65;;;1.55;;
22429;SDS011;11382;48.086;11.632;2023-11-21T02:13:15;8.05;;;1.50;;
22429;SDS011;11382;48.086;11.632;2023-11-21T02:15:43;7.13;;;1.70;;
22429;SDS011;11382;48.086;11.632;2023-11-21T02:18:13;7.85;;;1.90;;
22429;SDS011;11382;48.086;11.632;2023-11-21T02:20:42;6.00;;;1.67;;
22429;SDS011;11382;48.086;11.632;2023-11-21T02:23:11;4.60;;;1.35;;
22429;SDS011;11382;48.086;11.632;2023-11-21T02:25:39;3.22;;;1.60;;
22429;SDS011;11382;48.086;11.632;2023-11-21T02:28:09;8.48;;;1.73;;
22429;SDS011;11382;48.086;11.632;2023-11-21T02:30:39;4.68;;;1.17;;
22429;SDS011;11382;48.086;11.632;2023-11-21T02:33:08;5.88;;;1.50;;
22429;SDS011;11382;48.086;11.632;2023-11-21T02:35:38;4.85;;;1.48;;
22429;SDS011;11382;48.086;11.632;2023-11-21T02:38:06;2.78;;;1.30;;
22429;SDS011;11382;48.086;11.632;2023-11-21T02:40:36;6.85;;;1.48;;
22429;SDS011;11382;48.086;11.632;2023-11-21T02:43:04;3.05;;;1.20;;
22429;SDS011;11382;48.086;11.632;2023-11-21T02:45:32;4.13;;;1.17;;
22429;SDS011;11382;48.086;11.632;2023-11-21T02:48:00;2.45;;;1.30;;
22429;SDS011;11382;48.086;11.632;2023-11-21T02:50:29;3.45;;;1.25;;
22429;SDS011;11382;48.086;11.632;2023-11-21T02:52:57;4.88;;;1.45;;
22429;SDS011;11382;48.086;11.632;2023-11-21T02:55:27;4.35;;;1.05;;
22429;SDS011;11382;48.086;11.632;2023-11-21T02:57:56;3.38;;;1.40;;
22429;SDS011;11382;48.086;11.632;2023-11-21T03:00:25;4.35;;;1.50;;
22429;SDS011;11382;48.086;11.632;2023-11-21T03:02:54;3.40;;;1.23;;
22429;SDS011;11382;48.086;11.632;2023-11-21T03:05:25;5.70;;;1.60;;
22429;SDS011;11382;48.086;11.632;2023-11-21T03:07:52;3.88;;;1.17;;
22429;SDS011;11382;48.086;11.632;2023-11-21T03:10:21;3.42;;;1.40;;
22429;SDS011;11382;48.086;11.632;2023-11-21T03:12:49;1.52;;;1.05;;
22429;SDS011;11382;48.086;11.632;2023-11-21T03:15:19;3.58;;;1.67;;
22429;SDS011;11382;48.086;11.632;2023-11-21T03:17:47;4.95;;;1.40;;
22429;SDS011;11382;48.086;11.632;2023-11-21T03:20:16;7.75;;;1.40;;
22429;SDS011;11382;48.086;11.632;2023-11-21T03:22:44;6.47;;;1.55;;
22429;SDS011;11382;48.086;11.632;2023-11-21T03:25:13;1.90;;;1.10;;
22429;SDS011;11382;48.086;11.632;2023-11-21T03:27:43;4.90;;;1.30;;
22429;SDS011;11382;48.086;11.632;2023-11-21T03:30:11;4.68;;;1.33;;
22429;SDS011;11382;48.086;11.632;2023-11-21T03:32:42;4.30;;;1.20;;
22429;SDS011;11382;48.086;11.632;2023-11-21T03:35:10;4.80;;;1.30;;
22429;SDS011;11382;48.086;11.632;2023-11-21T03:37:38;3.00;;;1.45;;
22429;SDS011;11382;48.086;11.632;2023-11-21T03:40:08;5.82;;;1.35;;
22429;SDS011;11382;48.086;11.632;2023-11-21T03:42:39;2.72;;;1.30;;
22429;SDS011;11382;48.086;11.632;2023-11-21T03:45:07;3.15;;;1.25;;
22429;SDS011;11382;48.086;11.632;2023-11-21T03:47:36;2.70;;;1.20;;
22429;SDS011;11382;48.086;11.632;2023-11-21T03:50:06;4.15;;;1.00;;
22429;SDS011;11382;48.086;11.632;2023-11-21T03:52:35;2.08;;;1.00;;
22429;SDS011;11382;48.086;11.632;2023-11-21T03:55:04;5.85;;;1.10;;
22429;SDS011;11382;48.086;11.632;2023-11-21T03:57:32;3.25;;;0.95;;
22429;SDS011;11382;48.086;11.632;2023-11-21T04:00:00;1.98;;;0.90;;
22429;SDS011;11382;48.086;11.632;2023-11-21T04:02:37;4.13;;;0.90;;
22429;SDS011;11382;48.086;11.632;2023-11-21T04:05:07;3.35;;;1.25;;
22429;SDS011;11382;48.086;11.632;2023-11-21T04:07:36;5.57;;;1.00;;
22429;SDS011;11382;48.086;11.632;2023-11-21T04:10:05;2.33;;;0.80;;
22429;SDS011;11382;48.086;11.632;2023-11-21T04:12:35;2.92;;;0.82;;
22429;SDS011;11382;48.086;11.632;2023-11-21T04:15:03;3.65;;;1.40;;
22429;SDS011;11382;48.086;11.632;2023-11-21T04:17:32;1.95;;;0.90;;
22429;SDS011;11382;48.086;11.632;2023-11-21T04:20:00;5.03;;;0.85;;
22429;SDS011;11382;48.086;11.632;2023-11-21T04:22:29;8.48;;;1.23;;
22429;SDS011;11382;48.086;11.632;2023-11-21T04:24:57;2.70;;;0.80;;
22429;SDS011;11382;48.086;11.632;2023-11-21T04:27:25;3.15;;;1.00;;
22429;SDS011;11382;48.086;11.632;2023-11-21T04:29:54;2.28;;;0.82;;
22429;SDS011;11382;48.086;11.632;2023-11-21T04:32:22;3.28;;;0.85;;
22429;SDS011;11382;48.086;11.632;2023-11-21T04:34:50;2.97;;;1.02;;
22429;SDS011;11382;48.086;11.632;2023-11-21T04:37:18;2.90;;;0.82;;
22429;SDS011;11382;48.086;11.632;2023-11-21T04:39:47;2.78;;;0.80;;
22429;SDS011;11382;48.086;11.632;2023-11-21T04:42:15;1.23;;;0.90;;
22429;SDS011;11382;48.086;11.632;2023-11-21T04:44:43;5.47;;;1.02;;
22429;SDS011;11382;48.086;11.632;2023-11-21T04:47:11;2.58;;;0.70;;
22429;SDS011;11382;48.086;11.632;2023-11-21T04:49:41;2.55;;;0.98;;
22429;SDS011;11382;48.086;11.632;2023-11-21T04:52:10;1.77;;;1.00;;
22429;SDS011;11382;48.086;11.632;2023-11-21T04:54:38;1.95;;;1.08;;
22429;SDS011;11382;48.086;11.632;2023-11-21T04:57:08;4.00;;;1.13;;
22429;SDS011;11382;48.086;11.632;2023-11-21T04:59:36;3.13;;;0.95;;
22429;SDS011;11382;48.086;11.632;2023-11-21T05:02:04;2.85;;;0.93;;
22429;SDS011;11382;48.086;11.632;2023-11-21T05:04:32;4.93;;;1.00;;
22429;SDS011;11382;48.086;11.632;2023-11-21T05:07:00;2.33;;;0.90;;
22429;SDS011;11382;48.086;11.632;2023-11-21T05:09:28;2.08;;;0.70;;
22429;SDS011;11382;48.086;11.632;2023-11-21T05:11:58;2.03;;;0.93;;
22429;SDS011;11382;48.086;11.632;2023-11-21T05:14:28;5.78;;;1.13;;
22429;SDS011;11382;48.086;11.632;2023-11-21T05:16:55;1.38;;;0.70;;
22429;SDS011;11382;48.086;11.632;2023-11-21T05:19:25;1.35;;;0.68;;
22429;SDS011;11382;48.086;11.632;2023-11-21T05:21:53;3.03;;;1.02;;
22429;SDS011;11382;48.086;11.632;2023-11-21T05:24:21;3.15;;;0.98;;
22429;SDS011;11382;48.086;11.632;2023-11-21T05:26:49;2.20;;;0.88;;
22429;SDS011;11382;48.086;11.632;2023-11-21T05:29:17;1.45;;;0.80;;
22429;SDS011;11382;48.086;11.632;2023-11-21T05:31:46;2.95;;;0.77;;
22429;SDS011;11382;48.086;11.632;2023-11-21T05:34:16;2.05;;;0.70;;
22429;SDS011;11382;48.086;11.632;2023-11-21T05:36:50;2.25;;;0.80;;
22429;SDS011;11382;48.086;11.632;2023-11-21T05:39:19;1.08;;;0.82;;
22429;SDS011;11382;48.086;11.632;2023-11-21T05:41:51;2.63;;;0.93;;
22429;SDS011;11382;48.086;11.632;2023-11-21T05:44:20;2.10;;;0.90;;
22429;SDS011;11382;48.086;11.632;2023-11-21T05:46:51;2.10;;;0.80;;
22429;SDS011;11382;48.086;11.632;2023-11-21T05:49:21;4.15;;;1.00;;
22429;SDS011;11382;48.086;11.632;2023-11-21T05:51:49;1.75;;;0.70;;
22429;SDS011;11382;48.086;11.632;2023-11-21T05:54:20;3.25;;;1.00;;
22429;SDS011;11382;48.086;11.632;2023-11-21T05:56:48;3.15;;;0.98;;
22429;SDS011;11382;48.086;11.632;2023-11-21T05:59:16;2.15;;;1.10;;
22429;SDS011;11382;48.086;11.632;2023-11-21T06:01:48;4.37;;;1.50;;
22429;SDS011;11382;48.086;11.632;2023-11-21T06:04:21;3.28;;;1.13;;
22429;SDS011;11382;48.086;11.632;2023-11-21T06:06:51;4.22;;;0.80;;
22429;SDS011;11382;48.086;11.632;2023-11-21T06:09:20;2.60;;;0.80;;
22429;SDS011;11382;48.086;11.632;2023-11-21T06:11:49;2.95;;;0.73;;
22429;SDS011;11382;48.086;11.632;2023-11-21T06:14:17;6.45;;;1.02;;
22429;SDS011;11382;48.086;11.632;2023-11-21T06:16:45;2.67;;;0.90;;
22429;SDS011;11382;48.086;11.632;2023-11-21T06:19:13;4.10;;;1.00;;
22429;SDS011;11382;48.086;11.632;2023-11-21T06:21:46;3.60;;;0.90;;
22429;SDS011;11382;48.086;11.632;2023-11-21T06:24:14;2.05;;;0.88;;
22429;SDS011;11382;48.086;11.632;2023-11-21T06:26:43;2.60;;;0.80;;
22429;SDS011;11382;48.086;11.632;2023-11-21T06:29:25;3.40;;;0.98;;
22429;SDS011;11382;48.086;11.632;2023-11-21T06:31:53;1.48;;;0.85;;
22429;SDS011;11382;48.086;11.632;2023-11-21T06:34:21;4.55;;;1.13;;
22429;SDS011;11382;48.086;11.632;2023-11-21T06:36:51;2.60;;;0.82;;
22429;SDS011;11382;48.086;11.632;2023-11-21T06:39:19;5.43;;;1.05;;
22429;SDS011;11382;48.086;11.632;2023-11-21T06:41:49;2.53;;;0.90;;
22429;SDS011;11382;48.086;11.632;2023-11-21T06:44:17;1.45;;;0.80;;
22429;SDS011;11382;48.086;11.632;2023-11-21T06:46:46;2.25;;;0.95;;
22429;SDS011;11382;48.086;11.632;2023-11-21T06:49:15;1.90;;;0.95;;
22429;SDS011;11382;48.086;11.632;2023-11-21T06:51:43;3.92;;;1.20;;
22429;SDS011;11382;48.086;11.632;2023-11-21T06:54:12;2.35;;;1.15;;
22429;SDS011;11382;48.086;11.632;2023-11-21T06:56:40;3.97;;;1.10;;
22429;SDS011;11382;48.086;11.632;2023-11-21T06:59:08;4.43;;;1.20;;
22429;SDS011;11382;48.086;11.632;2023-11-21T07:01:37;2.05;;;0.85;;
22429;SDS011;11382;48.086;11.632;2023-11-21T07:04:07;1.48;;;0.90;;
22429;SDS011;11382;48.086;11.632;2023-11-21T07:06:35;2.15;;;0.82;;
22429;SDS011;11382;48.086;11.632;2023-11-21T07:09:04;2.38;;;0.65;;
22429;SDS011;11382;48.086;11.632;2023-11-21T07:11:33;1.88;;;0.75;;
22429;SDS011;11382;48.086;11.632;2023-11-21T07:14:01;3.78;;;0.90;;
22429;SDS011;11382;48.086;11.632;2023-11-21T07:16:33;1.73;;;0.80;;
22429;SDS011;11382;48.086;11.632;2023-11-21T07:19:03;2.00;;;0.60;;
22429;SDS011;11382;48.086;11.632;2023-11-21T07:21:32;0.68;;;0.57;;
22429;SDS011;11382;48.086;11.632;2023-11-21T07:24:01;4.45;;;1.42;;
22429;SDS011;11382;48.086;11.632;2023-11-21T07:26:29;2.05;;;0.90;;
22429;SDS011;11382;48.086;11.632;2023-11-21T07:28:59;1.27;;;0.60;;
22429;SDS011;11382;48.086;11.632;2023-11-21T07:31:27;3.70;;;0.95;;
22429;SDS011;11382;48.086;11.632;2023-11-21T07:33:55;1.35;;;0.63;;
22429;SDS011;11382;48.086;11.632;2023-11-21T07:36:24;0.60;;;0.60;;
22429;SDS011;11382;48.086;11.632;2023-11-21T07:38:52;4.10;;;1.15;;
22429;SDS011;11382;48.086;11.632;2023-11-21T07:41:20;1.90;;;0.80;;
22429;SDS011;11382;48.086;11.632;2023-11-21T07:43:56;3.10;;;0.73;;
22429;SDS011;11382;48.086;11.632;2023-11-21T07:46:26;1.60;;;0.70;;
22429;SDS011;11382;48.086;11.632;2023-11-21T07:48:54;1.67;;;0.70;;
22429;SDS011;11382;48.086;11.632;2023-11-21T07:51:22;1.27;;;0.70;;
22429;SDS011;11382;48.086;11.632;2023-11-21T07:53:50;2.15;;;0.65;;
22429;SDS011;11382;48.086;11.632;2023-11-21T07:56:18;1.38;;;0.70;;
22429;SDS011;11382;48.086;11.632;2023-11-21T07:58:46;1.00;;;0.50;;
22429;SDS011;11382;48.086;11.632;2023-11-21T08:01:17;2.35;;;0.50;;
22429;SDS011;11382;48.086;11.632;2023-11-21T08:03:45;2.78;;;0.73;;
22429;SDS011;11382;48.086;11.632;2023-11-21T08:06:18;1.27;;;0.95;;
22429;SDS011;11382;48.086;11.632;2023-11-21T08:08:46;0.98;;;0.85;;
22429;SDS011;11382;48.086;11.632;2023-11-21T08:11:13;2.10;;;0.82;;
22429;SDS011;11382;48.086;11.632;2023-11-21T08:13:44;2.45;;;1.00;;
22429;SDS011;11382;48.086;11.632;2023-11-21T08:16:12;1.08;;;0.90;;
22429;SDS011;11382;48.086;11.632;2023-11-21T08:18:42;2.22;;;0.68;;
22429;SDS011;11382;48.086;11.632;2023-11-21T08:21:12;1.75;;;0.57;;
22429;SDS011;11382;48.086;11.632;2023-11-21T08:23:40;0.75;;;0.60;;
22429;SDS011;11382;48.086;11.632;2023-11-21T08:26:08;0.65;;;0.45;;
22429;SDS011;11382;48.086;11.632;2023-11-21T08:28:36;1.35;;;0.50;;
22429;SDS011;11382;48.086;11.632;2023-11-21T08:31:04;0.80;;;0.70;;
22429;SDS011;11382;48.086;11.632;2023-11-21T08:33:32;2.67;;;0.70;;
22429;SDS011;11382;48.086;11.632;2023-11-21T08:36:06;0.70;;;0.50;;
22429;SDS011;11382;48.086;11.632;2023-11-21T08:38:35;1.92;;;0.45;;
22429;SDS011;11382;48.086;11.632;2023-11-21T08:41:05;1.17;;;0.47;;
22429;SDS011;11382;48.086;11.632;2023-11-21T08:43:34;2.15;;;0.73;;
22429;SDS011;11382;48.086;11.632;2023-11-21T08:46:06;2.95;;;0.70;;
22429;SDS011;11382;48.086;11.632;2023-11-21T08:48:35;1.55;;;0.55;;
22429;SDS011;11382;48.086;11.632;2023-11-21T08:51:05;5.07;;;0.77;;
22429;SDS011;11382;48.086;11.632;2023-11-21T08:53:33;1.35;;;0.65;;
22429;SDS011;11382;48.086;11.632;2023-11-21T08:56:02;1.45;;;0.52;;
22429;SDS011;11382;48.086;11.632;2023-11-21T08:58:30;2.05;;;0.70;;
22429;SDS011;11382;48.086;11.632;2023-11-21T09:00:58;2.83;;;1.05;;
22429;SDS011;11382;48.086;11.632;2023-11-21T09:03:26;1.15;;;0.68;;
22429;SDS011;11382;48.086;11.632;2023-11-21T09:05:54;2.13;;;0.88;;
22429;SDS011;11382;48.086;11.632;2023-11-21T09:08:24;1.77;;;0.60;;
22429;SDS011;11382;48.086;11.632;2023-11-21T09:10:52;0.98;;;0.40;;
22429;SDS011;11382;48.086;11.632;2023-11-21T09:13:20;0.77;;;0.40;;
22429;SDS011;11382;48.086;11.632;2023-11-21T09:15:51;2.30;;;0.77;;
22429;SDS011;11382;48.086;11.632;2023-11-21T09:18:19;1.50;;;0.70;;
22429;SDS011;11382;48.086;11.632;2023-11-21T09:20:47;0.85;;;0.68;;
22429;SDS011;11382;48.086;11.632;2023-11-21T09:23:15;0.85;;;0.60;;
22429;SDS011;11382;48.086;11.632;2023-11-21T09:25:44;0.93;;;0.50;;
22429;SDS011;11382;48.086;11.632;2023-11-21T09:28:14;1.83;;;0.60;;
22429;SDS011;11382;48.086;11.632;2023-11-21T09:30:43;3.38;;;0.93;;
22429;SDS011;11382;48.086;11.632;2023-11-21T09:33:11;1.83;;;0.50;;
22429;SDS011;11382;48.086;11.632;2023-11-21T09:35:39;1.40;;;0.80;;
22429;SDS011;11382;48.086;11.632;2023-11-21T09:38:10;3.03;;;0.82;;
22429;SDS011;11382;48.086;11.632;2023-11-21T09:40:38;3.13;;;0.65;;
22429;SDS011;11382;48.086;11.632;2023-11-21T09:43:08;0.82;;;0.57;;
22429;SDS011;11382;48.086;11.632;2023-11-21T09:45:44;2.28;;;0.60;;
22429;SDS011;11382;48.086;11.632;2023-11-21T09:48:13;2.45;;;0.95;;
22429;SDS011;11382;48.086;11.632;2023-11-21T09:50:43;2.05;;;0.65;;
22429;SDS011;11382;48.086;11.632;2023-11-21T09:53:13;2.45;;;0.82;;
22429;SDS011;11382;48.086;11.632;2023-11-21T09:58:15;2.33;;;0.70;;
22429;SDS011;11382;48.086;11.632;2023-11-21T10:00:44;1.67;;;0.70;;
22429;SDS011;11382;48.086;11.632;2023-11-21T10:03:13;2.58;;;0.90;;
22429;SDS011;11382;48.086;11.632;2023-11-21T10:05:43;2.72;;;0.90;;
22429;SDS011;11382;48.086;11.632;2023-11-21T10:08:12;2.13;;;0.95;;
22429;SDS011;11382;48.086;11.632;2023-11-21T10:10:43;2.20;;;0.88;;
22429;SDS011;11382;48.086;11.632;2023-11-21T10:13:12;3.45;;;0.95;;
22429;SDS011;11382;48.086;11.632;2023-11-21T10:15:44;2.80;;;0.75;;
22429;SDS011;11382;48.086;11.632;2023-11-21T10:18:16;6.13;;;0.90;;
22429;SDS011;11382;48.086;11.632;2023-11-21T10:20:45;2.28;;;0.93;;
22429;SDS011;11382;48.086;11.632;2023-11-21T10:23:19;1.67;;;0.70;;
22429;SDS011;11382;48.086;11.632;2023-11-21T10:25:49;3.38;;;0.80;;
22429;SDS011;11382;48.086;11.632;2023-11-21T10:28:19;3.83;;;0.90;;
22429;SDS011;11382;48.086;11.632;2023-11-21T10:30:48;2.67;;;0.90;;
22429;SDS011;11382;48.086;11.632;2023-11-21T10:33:16;2.53;;;0.98;;
22429;SDS011;11382;48.086;11.632;2023-11-21T10:35:45;2.78;;;1.25;;
22429;SDS011;11382;48.086;11.632;2023-11-21T10:38:18;1.40;;;0.90;;
22429;SDS011;11382;48.086;11.632;2023-11-21T10:40:47;1.88;;;0.95;;
22429;SDS011;11382;48.086;11.632;2023-11-21T10:43:16;1.67;;;0.90;;
22429;SDS011;11382;48.086;11.632;2023-11-21T10:45:46;2.60;;;0.90;;
22429;SDS011;11382;48.086;11.632;2023-11-21T10:48:14;5.57;;;1.17;;
22429;SDS011;11382;48.086;11.632;2023-11-21T10:50:43;1.20;;;0.93;;
22429;SDS011;11382;48.086;11.632;2023-11-21T10:53:13;4.35;;;1.00;;
22429;SDS011;11382;48.086;11.632;2023-11-21T10:55:41;1.50;;;0.85;;
22429;SDS011;11382;48.086;11.632;2023-11-21T10:58:12;2.45;;;1.10;;
22429;SDS011;11382;48.086;11.632;2023-11-21T11:00:41;2.72;;;0.77;;
22429;SDS011;11382;48.086;11.632;2023-11-21T11:03:13;1.60;;;0.85;;
22429;SDS011;11382;48.086;11.632;2023-11-21T11:05:43;2.70;;;0.73;;
22429;SDS011;11382;48.086;11.632;2023-11-21T11:08:18;2.00;;;0.90;;
22429;SDS011;11382;48.086;11.632;2023-11-21T11:10:53;2.35;;;0.98;;
22429;SDS011;11382;48.086;11.632;2023-11-21T11:13:22;1.67;;;0.90;;
22429;SDS011;11382;48.086;11.632;2023-11-21T11:15:51;0.88;;;0.88;;
22429;SDS011;11382;48.086;11.632;2023-11-21T11:18:28;3.85;;;0.88;;
22429;SDS011;11382;48.086;11.632;2023-11-21T11:20:58;2.33;;;0.88;;
22429;SDS011;11382;48.086;11.632;2023-11-21T11:23:51;3.25;;;0.80;;
22429;SDS011;11382;48.086;11.632;2023-11-21T11:26:37;2.58;;;0.82;;
22429;SDS011;11382;48.086;11.632;2023-11-21T11:29:11;2.50;;;1.00;;
22429;SDS011;11382;48.086;11.632;2023-11-21T11:31:50;2.65;;;0.68;;
22429;SDS011;11382;48.086;11.632;2023-11-21T11:34:28;4.53;;;0.88;;
22429;SDS011;11382;48.086;11.632;2023-11-21T11:36:59;3.05;;;0.98;;
22429;SDS011;11382;48.086;11.632;2023-11-21T11:39:30;3.25;;;0.90;;
22429;SDS011;11382;48.086;11.632;2023-11-21T11:42:02;1.90;;;0.77;;
22429;SDS011;11382;48.086;11.632;2023-11-21T11:44:46;1.58;;;0.82;;
22429;SDS011;11382;48.086;11.632;2023-11-21T11:47:22;1.70;;;0.90;;
22429;SDS011;11382;48.086;11.632;2023-11-21T11:52:46;1.92;;;0.50;;
22429;SDS011;11382;48.086;11.632;2023-11-21T11:55:17;1.15;;;0.70;;
22429;SDS011;11382;48.086;11.632;2023-11-21T11:57:47;1.65;;;0.80;;
22429;SDS011;11382;48.086;11.632;2023-11-21T12:00:18;1.95;;;0.90;;
22429;SDS011;11382;48.086;11.632;2023-11-21T12:02:48;2.40;;;0.80;;
22429;SDS011;11382;48.086;11.632;2023-11-21T12:05:19;2.88;;;1.00;;
22429;SDS011;11382;48.086;11.632;2023-11-21T12:07:49;3.67;;;0.90;;
22429;SDS011;11382;48.086;11.632;2023-11-21T12:10:20;3.95;;;1.10;;
22429;SDS011;11382;48.086;11.632;2023-11-21T12:12:51;2.25;;;0.90;;
22429;SDS011;11382;48.086;11.632;2023-11-21T12:15:21;1.58;;;1.08;;
22429;SDS011;11382;48.086;11.632;2023-11-21T12:17:51;2.97;;;0.82;;
22429;SDS011;11382;48.086;11.632;2023-11-21T12:20:21;1.13;;;0.70;;
22429;SDS011;11382;48.086;11.632;2023-11-21T12:22:50;1.42;;;0.80;;
22429;SDS011;11382;48.086;11.632;2023-11-21T12:25:20;2.63;;;1.05;;
22429;SDS011;11382;48.086;11.632;2023-11-21T12:27:49;2.15;;;0.80;;
22429;SDS011;11382;48.086;11.632;2023-11-21T12:30:19;2.05;;;1.00;;
22429;SDS011;11382;48.086;11.632;2023-11-21T12:32:49;2.40;;;1.00;;
22429;SDS011;11382;48.086;11.632;2023-11-21T12:35:19;2.58;;;0.80;;
22429;SDS011;11382;48.086;11.632;2023-11-21T12:37:50;1.55;;;0.90;;
22429;SDS011;11382;48.086;11.632;2023-11-21T12:40:19;3.50;;;0.88;;
22429;SDS011;11382;48.086;11.632;2023-11-21T12:42:51;3.38;;;0.95;;
22429;SDS011;11382;48.086;11.632;2023-11-21T12:45:20;1.35;;;0.80;;
22429;SDS011;11382;48.086;11.632;2023-11-21T12:47:52;1.10;;;0.85;;
22429;SDS011;11382;48.086;11.632;2023-11-21T12:50:25;4.03;;;1.20;;
22429;SDS011;11382;48.086;11.632;2023-11-21T12:52:58;0.80;;;0.60;;
22429;SDS011;11382;48.086;11.632;2023-11-21T12:55:30;1.35;;;0.95;;
22429;SDS011;11382;48.086;11.632;2023-11-21T12:58:01;1.52;;;0.50;;
22429;SDS011;11382;48.086;11.632;2023-11-21T13:00:35;2.08;;;0.73;;
22429;SDS011;11382;48.086;11.632;2023-11-21T13:03:05;1.58;;;0.65;;
22429;SDS011;11382;48.086;11.632;2023-11-21T13:05:40;1.80;;;1.00;;
22429;SDS011;11382;48.086;11.632;2023-11-21T13:08:14;1.70;;;0.80;;
22429;SDS011;11382;48.086;11.632;2023-11-21T13:10:47;1.00;;;0.60;;
22429;SDS011;11382;48.086;11.632;2023-11-21T13:13:18;2.83;;;1.00;;
22429;SDS011;11382;48.086;11.632;2023-11-21T13:15:50;2.05;;;0.60;;
22429;SDS011;11382;48.086;11.632;2023-11-21T13:18:21;4.60;;;2.10;;
22429;SDS011;11382;48.086;11.632;2023-11-21T13:20:50;8.18;;;4.00;;
22429;SDS011;11382;48.086;11.632;2023-11-21T13:23:21;6.10;;;2.70;;
22429;SDS011;11382;48.086;11.632;2023-11-21T13:25:49;3.80;;;2.28;;
22429;SDS011;11382;48.086;11.632;2023-11-21T13:28:28;7.78;;;2.92;;
22429;SDS011;11382;48.086;11.632;2023-11-21T13:30:59;5.20;;;3.13;;
22429;SDS011;11382;48.086;11.632;2023-11-21T13:33:37;0.73;;;0.40;;
22429;SDS011;11382;48.086;11.632;2023-11-21T13:36:07;1.48;;;0.40;;
22429;SDS011;11382;48.086;11.632;2023-11-21T13:38:35;0.30;;;0.30;;
22429;SDS011;11382;48.086;11.632;2023-11-21T13:41:08;0.20;;;0.20;;
22429;SDS011;11382;48.086;11.632;2023-11-21T13:43:38;0.70;;;0.30;;
22429;SDS011;11382;48.086;11.632;2023-11-21T13:46:10;2.92;;;0.90;;
22429;SDS011;11382;48.086;11.632;2023-11-21T13:48:41;1.10;;;0.50;;
22429;SDS011;11382;48.086;11.632;2023-11-21T13:51:18;0.95;;;0.60;;
22429;SDS011;11382;48.086;11.632;2023-11-21T13:53:51;0.93;;;0.57;;
22429;SDS011;11382;48.086;11.632;2023-11-21T13:56:21;0.30;;;0.30;;
22429;SDS011;11382;48.086;11.632;2023-11-21T13:58:51;0.50;;;0.40;;
22429;SDS011;11382;48.086;11.632;2023-11-21T14:01:21;0.60;;;0.50;;
22429;SDS011;11382;48.086;11.632;2023-11-21T14:04:09;1.15;;;0.50;;
22429;SDS011;11382;48.086;11.632;2023-11-21T14:06:47;0.57;;;0.57;;
22429;SDS011;11382;48.086;11.632;2023-11-21T14:09:18;0.80;;;0.65;;
22429;SDS011;11382;48.086;11.632;2023-11-21T14:11:51;0.52;;;0.47;;
22429;SDS011;11382;48.086;11.632;2023-11-21T14:14:21;2.28;;;0.68;;
22429;SDS011;11382;48.086;11.632;2023-11-21T14:16:51;1.45;;;1.02;;
22429;SDS011;11382;48.086;11.632;2023-11-21T14:19:19;1.52;;;1.17;;
22429;SDS011;11382;48.086;11.632;2023-11-21T14:21:48;1.10;;;0.77;;
22429;SDS011;11382;48.086;11.632;2023-11-21T14:24:17;2.00;;;1.58;;
22429;SDS011;11382;48.086;11.632;2023-11-21T14:26:45;2.17;;;1.60;;
22429;SDS011;11382;48.086;11.632;2023-11-21T14:29:14;1.40;;;0.80;;
22429;SDS011;11382;48.086;11.632;2023-11-21T14:31:46;0.40;;;0.40;;
22429;SDS011;11382;48.086;11.632;2023-11-21T14:34:15;1.17;;;0.70;;
22429;SDS011;11382;48.086;11.632;2023-11-21T14:36:49;1.53;;;0.50;;
22429;SDS011;11382;48.086;11.632;2023-11-21T14:39:17;1.35;;;0.63;;
22429;SDS011;11382;48.086;11.632;2023-11-21T14:41:51;1.05;;;0.50;;
22429;SDS011;11382;48.086;11.632;2023-11-21T14:44:20;0.57;;;0.55;;
22429;SDS011;11382;48.086;11.632;2023-11-21T14:46:52;1.15;;;0.70;;
22429;SDS011;11382;48.086;11.632;2023-11-21T14:49:24;0.60;;;0.60;;
22429;SDS011;11382;48.086;11.632;2023-11-21T14:51:56;1.50;;;0.63;;
22429;SDS011;11382;48.086;11.632;2023-11-21T14:54:30;2.28;;;0.73;;